createdAt,value
2017-03-13T00:00:49.776Z,0
2017-03-13T00:01:49.769Z,0
2017-03-13T00:02:49.742Z,0
2017-03-13T00:03:50.141Z,0
2017-03-13T00:04:49.713Z,0
2017-03-13T00:05:49.711Z,0
2017-03-13T00:06:50.066Z,0
2017-03-13T00:07:50.059Z,0
2017-03-13T00:08:50.041Z,0
2017-03-13T00:09:50.025Z,0
2017-03-13T00:10:50.012Z,0
2017-03-13T00:11:50.027Z,0
2017-03-13T00:12:49.994Z,0
2017-03-13T00:13:49.974Z,0
2017-03-13T00:14:49.972Z,0
2017-03-13T00:15:49.971Z,0
2017-03-13T00:16:49.955Z,0
2017-03-13T00:17:49.910Z,0
2017-03-13T00:18:49.892Z,0
2017-03-13T00:19:49.893Z,0
2017-03-13T00:20:49.860Z,0
2017-03-13T00:21:49.849Z,0
2017-03-13T00:22:49.844Z,0
2017-03-13T00:23:49.827Z,0
2017-03-13T00:24:49.805Z,0
2017-03-13T00:25:49.818Z,0
2017-03-13T00:26:49.770Z,0
2017-03-13T00:27:49.762Z,0
2017-03-13T00:28:49.760Z,0
2017-03-13T00:29:49.349Z,0
2017-03-13T00:30:49.711Z,0
2017-03-13T00:31:49.706Z,0
2017-03-13T00:32:49.690Z,0
2017-03-13T00:33:49.284Z,0
2017-03-13T00:34:49.655Z,0
2017-03-13T00:35:49.644Z,0
2017-03-13T00:36:49.250Z,0
2017-03-13T00:37:49.618Z,0
2017-03-13T00:38:49.241Z,0
2017-03-13T00:39:49.217Z,0
2017-03-13T00:40:49.567Z,0
2017-03-13T00:41:49.549Z,0
2017-03-13T00:42:49.563Z,0
2017-03-13T00:43:49.519Z,0
2017-03-13T00:44:49.505Z,0
2017-03-13T00:45:49.513Z,0
2017-03-13T00:46:49.492Z,0
2017-03-13T00:47:49.462Z,0
2017-03-13T00:48:49.444Z,0
2017-03-13T00:49:49.453Z,0
2017-03-13T00:50:49.437Z,0
2017-03-13T00:51:49.401Z,0
2017-03-13T00:52:49.397Z,0
2017-03-13T00:53:49.429Z,0
2017-03-13T00:54:49.354Z,0
2017-03-13T00:55:49.354Z,0
2017-03-13T00:56:48.977Z,0
2017-03-13T00:57:49.313Z,0
2017-03-13T00:58:49.302Z,0
2017-03-13T00:59:49.293Z,0
2017-03-13T01:00:49.266Z,0
2017-03-13T01:01:49.254Z,0
2017-03-13T01:02:49.241Z,0
2017-03-13T01:03:49.235Z,0
2017-03-13T01:04:49.238Z,0
2017-03-13T01:05:49.210Z,0
2017-03-13T01:06:49.180Z,0
2017-03-13T01:07:49.188Z,0
2017-03-13T01:08:49.147Z,0
2017-03-13T01:09:49.129Z,0
2017-03-13T01:10:48.746Z,0
2017-03-13T01:11:49.118Z,0
2017-03-13T01:12:49.095Z,0
2017-03-13T01:13:49.075Z,0
2017-03-13T01:14:49.057Z,0
2017-03-13T01:15:49.042Z,0
2017-03-13T01:16:49.028Z,0
2017-03-13T01:17:49.053Z,0
2017-03-13T01:18:49.002Z,0
2017-03-13T01:19:48.988Z,0
2017-03-13T01:20:48.993Z,0
2017-03-13T01:21:48.992Z,0
2017-03-13T01:22:48.954Z,0
2017-03-13T01:23:48.943Z,0
2017-03-13T01:24:48.925Z,0
2017-03-13T01:25:48.920Z,0
2017-03-13T01:26:48.883Z,0
2017-03-13T01:27:48.872Z,0
2017-03-13T01:28:48.856Z,0
2017-03-13T01:29:48.868Z,0
2017-03-13T01:30:48.452Z,0
2017-03-13T01:31:48.815Z,0
2017-03-13T01:32:48.792Z,0
2017-03-13T01:33:48.794Z,0
2017-03-13T01:34:48.769Z,0
2017-03-13T01:35:48.744Z,0
2017-03-13T01:36:48.740Z,0
2017-03-13T01:37:48.725Z,0
2017-03-13T01:38:48.710Z,0
2017-03-13T01:39:48.299Z,0
2017-03-13T01:40:48.673Z,0
2017-03-13T01:41:48.666Z,0
2017-03-13T01:42:48.662Z,0
2017-03-13T01:43:48.632Z,0
2017-03-13T01:44:48.613Z,0
2017-03-13T01:45:48.617Z,0
2017-03-13T01:46:48.591Z,0
2017-03-13T01:47:48.573Z,0
2017-03-13T01:48:48.560Z,0
2017-03-13T01:49:48.152Z,0
2017-03-13T01:50:48.524Z,0
2017-03-13T01:51:48.135Z,0
2017-03-13T01:52:48.513Z,0
2017-03-13T01:53:48.499Z,0
2017-03-13T01:54:48.463Z,0
2017-03-13T01:55:48.446Z,0
2017-03-13T01:56:48.050Z,0
2017-03-13T01:57:48.420Z,0
2017-03-13T01:58:48.399Z,0
2017-03-13T01:59:48.391Z,0
2017-03-13T02:00:48.371Z,0
2017-03-13T02:01:48.409Z,0
2017-03-13T02:02:48.343Z,0
2017-03-13T02:03:48.342Z,0
2017-03-13T02:04:48.331Z,0
2017-03-13T02:05:48.335Z,0
2017-03-13T02:06:47.928Z,0
2017-03-13T02:07:48.267Z,0
2017-03-13T02:08:47.862Z,0
2017-03-13T02:09:48.238Z,0
2017-03-13T02:10:48.224Z,0
2017-03-13T02:11:48.210Z,0
2017-03-13T02:12:47.813Z,0
2017-03-13T02:13:47.819Z,0
2017-03-13T02:14:47.788Z,0
2017-03-13T02:15:47.777Z,0
2017-03-13T02:16:48.167Z,0
2017-03-13T02:17:48.126Z,0
2017-03-13T02:18:48.122Z,0
2017-03-13T02:19:48.098Z,0
2017-03-13T02:20:48.083Z,0
2017-03-13T02:21:48.063Z,0
2017-03-13T02:22:48.043Z,0
2017-03-13T02:23:48.030Z,0
2017-03-13T02:24:47.259Z,0
2017-03-13T02:25:48.005Z,0
2017-03-13T02:26:47.986Z,0
2017-03-13T02:27:47.585Z,0
2017-03-13T02:28:47.961Z,0
2017-03-13T02:29:47.971Z,0
2017-03-13T02:30:47.933Z,0
2017-03-13T02:31:47.918Z,0
2017-03-13T02:32:47.902Z,0
2017-03-13T02:33:47.890Z,0
2017-03-13T02:34:47.900Z,0
2017-03-13T02:35:47.852Z,0
2017-03-13T02:36:47.843Z,0
2017-03-13T02:37:47.827Z,0
2017-03-13T02:38:47.813Z,0
2017-03-13T02:39:47.796Z,0
2017-03-13T02:40:47.775Z,0
2017-03-13T02:41:47.767Z,0
2017-03-13T02:42:47.763Z,0
2017-03-13T02:43:47.736Z,0
2017-03-13T02:44:47.728Z,0
2017-03-13T02:45:47.355Z,0
2017-03-13T02:46:47.709Z,0
2017-03-13T02:47:47.688Z,0
2017-03-13T02:48:47.672Z,0
2017-03-13T02:49:47.652Z,0
2017-03-13T02:50:47.636Z,0
2017-03-13T02:51:47.624Z,0
2017-03-13T02:52:47.603Z,0
2017-03-13T02:53:47.602Z,0
2017-03-13T02:54:47.581Z,0
2017-03-13T02:55:47.593Z,0
2017-03-13T02:56:47.545Z,0
2017-03-13T02:57:47.542Z,0
2017-03-13T02:58:47.510Z,0
2017-03-13T02:59:47.498Z,0
2017-03-13T03:00:47.486Z,0
2017-03-13T03:01:47.472Z,0
2017-03-13T03:02:47.453Z,0
2017-03-13T03:03:47.441Z,0
2017-03-13T03:04:47.420Z,0
2017-03-13T03:05:47.408Z,0
2017-03-13T03:06:47.398Z,0
2017-03-13T03:07:47.378Z,0
2017-03-13T03:08:47.376Z,0
2017-03-13T03:09:47.343Z,0
2017-03-13T03:10:47.349Z,0
2017-03-13T03:11:47.324Z,0
2017-03-13T03:12:47.307Z,0
2017-03-13T03:13:47.287Z,0
2017-03-13T03:14:47.273Z,0
2017-03-13T03:15:47.297Z,0
2017-03-13T03:16:47.256Z,0
2017-03-13T03:17:46.835Z,0
2017-03-13T03:18:47.213Z,0
2017-03-13T03:19:47.211Z,0
2017-03-13T03:20:47.181Z,0
2017-03-13T03:21:47.183Z,0
2017-03-13T03:22:47.151Z,0
2017-03-13T03:23:47.138Z,0
2017-03-13T03:24:47.117Z,0
2017-03-13T03:25:47.117Z,0
2017-03-13T03:26:47.085Z,0
2017-03-13T03:27:46.715Z,0
2017-03-13T03:28:47.066Z,0
2017-03-13T03:29:47.067Z,0
2017-03-13T03:30:47.044Z,0
2017-03-13T03:31:47.013Z,0
2017-03-13T03:32:46.997Z,0
2017-03-13T03:33:46.984Z,0
2017-03-13T03:34:46.606Z,0
2017-03-13T03:35:46.960Z,0
2017-03-13T03:36:46.935Z,0
2017-03-13T03:37:46.960Z,0
2017-03-13T03:38:46.914Z,0
2017-03-13T03:39:46.898Z,0
2017-03-13T03:40:46.509Z,0
2017-03-13T03:41:46.886Z,0
2017-03-13T03:42:46.849Z,0
2017-03-13T03:43:46.835Z,0
2017-03-13T03:44:46.817Z,0
2017-03-13T03:45:46.801Z,0
2017-03-13T03:46:46.783Z,0
2017-03-13T03:47:46.797Z,0
2017-03-13T03:48:46.786Z,0
2017-03-13T03:49:46.789Z,0
2017-03-13T03:50:46.731Z,0
2017-03-13T03:51:46.333Z,0
2017-03-13T03:52:46.693Z,0
2017-03-13T03:53:46.699Z,0
2017-03-13T03:54:46.665Z,0
2017-03-13T03:55:46.671Z,0
2017-03-13T03:56:46.646Z,0
2017-03-13T03:57:46.643Z,0
2017-03-13T03:58:46.217Z,0
2017-03-13T03:59:46.590Z,0
2017-03-13T04:00:46.595Z,0
2017-03-13T04:01:46.559Z,0
2017-03-13T04:02:46.541Z,0
2017-03-13T04:03:46.537Z,0
2017-03-13T04:04:46.507Z,0
2017-03-13T04:05:46.506Z,0
2017-03-13T04:06:46.484Z,0
2017-03-13T04:07:46.087Z,0
2017-03-13T04:08:46.458Z,0
2017-03-13T04:09:46.065Z,0
2017-03-13T04:10:46.418Z,0
2017-03-13T04:11:46.402Z,0
2017-03-13T04:12:46.389Z,0
2017-03-13T04:13:46.395Z,0
2017-03-13T04:14:46.358Z,0
2017-03-13T04:15:46.343Z,0
2017-03-13T04:16:46.341Z,0
2017-03-13T04:17:46.312Z,0
2017-03-13T04:18:46.290Z,0
2017-03-13T04:19:46.285Z,0
2017-03-13T04:20:46.310Z,0
2017-03-13T04:21:45.869Z,0
2017-03-13T04:22:46.263Z,0
2017-03-13T04:23:46.232Z,0
2017-03-13T04:24:46.210Z,0
2017-03-13T04:25:46.188Z,0
2017-03-13T04:26:45.808Z,0
2017-03-13T04:27:46.163Z,0
2017-03-13T04:28:46.165Z,0
2017-03-13T04:29:46.140Z,0
2017-03-13T04:30:46.119Z,0
2017-03-13T04:31:45.722Z,0
2017-03-13T04:32:46.080Z,0
2017-03-13T04:33:46.071Z,0
2017-03-13T04:34:46.049Z,0
2017-03-13T04:35:46.034Z,0
2017-03-13T04:36:45.651Z,0
2017-03-13T04:37:45.995Z,0
2017-03-13T04:38:46.003Z,0
2017-03-13T04:39:45.973Z,0
2017-03-13T04:40:45.976Z,0
2017-03-13T04:41:45.935Z,0
2017-03-13T04:42:45.921Z,0
2017-03-13T04:43:45.917Z,0
2017-03-13T04:44:45.912Z,0
2017-03-13T04:45:45.887Z,0
2017-03-13T04:46:45.881Z,0
2017-03-13T04:47:45.857Z,0
2017-03-13T04:48:45.832Z,0
2017-03-13T04:49:45.442Z,4
2017-03-13T04:50:45.810Z,4
2017-03-13T04:51:45.781Z,0
2017-03-13T04:52:45.779Z,4
2017-03-13T04:53:45.758Z,4
2017-03-13T04:54:45.346Z,4
2017-03-13T04:55:45.712Z,4
2017-03-13T04:56:45.714Z,8
2017-03-13T04:57:45.693Z,8
2017-03-13T04:58:45.716Z,8
2017-03-13T04:59:45.651Z,8
2017-03-13T05:00:45.261Z,12
2017-03-13T05:01:45.631Z,16
2017-03-13T05:02:45.637Z,16
2017-03-13T05:03:45.592Z,20
2017-03-13T05:04:45.587Z,24
2017-03-13T05:05:45.186Z,28
2017-03-13T05:06:45.587Z,32
2017-03-13T05:07:45.525Z,36
2017-03-13T05:08:45.545Z,44
2017-03-13T05:09:45.507Z,52
2017-03-13T05:10:44.722Z,60
2017-03-13T05:11:45.467Z,68
2017-03-13T05:12:45.462Z,80
2017-03-13T05:13:45.060Z,92
2017-03-13T05:14:45.417Z,108
2017-03-13T05:15:45.411Z,124
2017-03-13T05:16:45.392Z,136
2017-03-13T05:17:45.369Z,160
2017-03-13T05:18:45.363Z,180
2017-03-13T05:19:45.337Z,200
2017-03-13T05:20:45.327Z,224
2017-03-13T05:21:45.309Z,244
2017-03-13T05:22:45.304Z,268
2017-03-13T05:23:45.276Z,292
2017-03-13T05:24:45.267Z,320
2017-03-13T05:25:45.252Z,344
2017-03-13T05:26:45.240Z,372
2017-03-13T05:27:44.829Z,408
2017-03-13T05:28:44.814Z,440
2017-03-13T05:29:45.197Z,476
2017-03-13T05:30:45.173Z,512
2017-03-13T05:31:45.179Z,556
2017-03-13T05:32:45.150Z,596
2017-03-13T05:33:45.118Z,640
2017-03-13T05:34:45.105Z,684
2017-03-13T05:35:45.084Z,732
2017-03-13T05:36:45.081Z,784
2017-03-13T05:37:45.056Z,832
2017-03-13T05:38:45.041Z,884
2017-03-13T05:39:45.033Z,936
2017-03-13T05:40:45.010Z,988
2017-03-13T05:41:45.007Z,1040
2017-03-13T05:42:45.277Z,1088
2017-03-13T05:43:44.977Z,1140
2017-03-13T05:44:44.942Z,1200
2017-03-13T05:45:44.929Z,1272
2017-03-13T05:46:44.913Z,1352
2017-03-13T05:47:44.897Z,1440
2017-03-13T05:48:44.915Z,1532
2017-03-13T05:49:44.499Z,1632
2017-03-13T05:50:44.851Z,1752
2017-03-13T05:51:44.831Z,1888
2017-03-13T05:52:44.823Z,2048
2017-03-13T05:53:44.830Z,2216
2017-03-13T05:54:44.815Z,2400
2017-03-13T05:55:44.811Z,2572
2017-03-13T05:56:44.779Z,2708
2017-03-13T05:57:44.751Z,2808
2017-03-13T05:58:44.753Z,2872
2017-03-13T05:59:44.734Z,2912
2017-03-13T06:00:44.732Z,2940
2017-03-13T06:01:44.681Z,3012
2017-03-13T06:02:44.678Z,3100
2017-03-13T06:03:44.670Z,3148
2017-03-13T06:04:44.639Z,3200
2017-03-13T06:05:44.638Z,3280
2017-03-13T06:06:44.641Z,3376
2017-03-13T06:07:44.854Z,3472
2017-03-13T06:08:44.581Z,3564
2017-03-13T06:09:44.559Z,3656
2017-03-13T06:10:44.562Z,3776
2017-03-13T06:11:44.569Z,3968
2017-03-13T06:12:44.527Z,4228
2017-03-13T06:13:44.512Z,4536
2017-03-13T06:14:44.494Z,4868
2017-03-13T06:15:44.476Z,5320
2017-03-13T06:16:44.464Z,5784
2017-03-13T06:17:44.460Z,6152
2017-03-13T06:18:44.461Z,6524
2017-03-13T06:19:44.036Z,6840
2017-03-13T06:20:44.411Z,7096
2017-03-13T06:21:44.422Z,7100
2017-03-13T06:22:44.636Z,6860
2017-03-13T06:23:44.381Z,7108
2017-03-13T06:24:44.356Z,6668
2017-03-13T06:25:44.340Z,6536
2017-03-13T06:26:44.333Z,6736
2017-03-13T06:27:44.315Z,7036
2017-03-13T06:28:44.322Z,7284
2017-03-13T06:29:44.330Z,7240
2017-03-13T06:30:44.305Z,6812
2017-03-13T06:31:44.268Z,6616
2017-03-13T06:32:44.256Z,6964
2017-03-13T06:33:43.873Z,7244
2017-03-13T06:34:44.238Z,6448
2017-03-13T06:35:44.232Z,6184
2017-03-13T06:36:43.832Z,6324
2017-03-13T06:37:44.204Z,6416
2017-03-13T06:38:44.192Z,6760
2017-03-13T06:39:44.174Z,7168
2017-03-13T06:40:44.155Z,7896
2017-03-13T06:41:44.146Z,7684
2017-03-13T06:42:44.138Z,7484
2017-03-13T06:43:44.123Z,7624
2017-03-13T06:44:44.123Z,7640
2017-03-13T06:45:44.111Z,7828
2017-03-13T06:46:44.106Z,8112
2017-03-13T06:47:44.077Z,8528
2017-03-13T06:48:44.099Z,8600
2017-03-13T06:49:43.699Z,8356
2017-03-13T06:50:44.051Z,8252
2017-03-13T06:51:44.069Z,8404
2017-03-13T06:52:43.644Z,8676
2017-03-13T06:53:44.264Z,9084
2017-03-13T06:54:43.643Z,9596
2017-03-13T06:55:44.000Z,10220
2017-03-13T06:56:43.983Z,11128
2017-03-13T06:57:43.986Z,13556
2017-03-13T06:58:43.957Z,15456
2017-03-13T06:59:43.950Z,17184
2017-03-13T07:00:43.932Z,16384
2017-03-13T07:01:43.932Z,15968
2017-03-13T07:02:43.922Z,16352
2017-03-13T07:03:43.896Z,16256
2017-03-13T07:04:43.888Z,18016
2017-03-13T07:05:43.882Z,18528
2017-03-13T07:06:43.883Z,18016
2017-03-13T07:07:43.893Z,18752
2017-03-13T07:08:43.888Z,17024
2017-03-13T07:09:43.849Z,17760
2017-03-13T07:10:43.853Z,16512
2017-03-13T07:11:43.842Z,14560
2017-03-13T07:12:43.437Z,13568
2017-03-13T07:13:43.807Z,13440
2017-03-13T07:14:43.839Z,14624
2017-03-13T07:15:43.828Z,13384
2017-03-13T07:16:43.782Z,16608
2017-03-13T07:17:43.793Z,16128
2017-03-13T07:18:43.784Z,14104
2017-03-13T07:19:43.785Z,13428
2017-03-13T07:20:43.769Z,13040
2017-03-13T07:21:43.749Z,13312
2017-03-13T07:22:43.744Z,12476
2017-03-13T07:23:43.720Z,11896
2017-03-13T07:24:43.727Z,11408
2017-03-13T07:25:43.709Z,11560
2017-03-13T07:26:43.726Z,11984
2017-03-13T07:27:43.719Z,10848
2017-03-13T07:28:43.709Z,10276
2017-03-13T07:29:43.682Z,9824
2017-03-13T07:30:43.674Z,10528
2017-03-13T07:31:43.672Z,12184
2017-03-13T07:32:43.660Z,9632
2017-03-13T07:33:43.656Z,9372
2017-03-13T07:34:43.647Z,9316
2017-03-13T07:35:43.657Z,9920
2017-03-13T07:36:43.633Z,10604
2017-03-13T07:37:43.240Z,9644
2017-03-13T07:38:43.620Z,10840
2017-03-13T07:39:43.618Z,11792
2017-03-13T07:40:43.598Z,14616
2017-03-13T07:41:43.610Z,10700
2017-03-13T07:42:43.584Z,11380
2017-03-13T07:43:43.574Z,10104
2017-03-13T07:44:43.569Z,10656
2017-03-13T07:45:43.584Z,13400
2017-03-13T07:46:43.569Z,12980
2017-03-13T07:47:43.555Z,11916
2017-03-13T07:48:43.537Z,11732
2017-03-13T07:49:43.563Z,10872
2017-03-13T07:50:43.517Z,10376
2017-03-13T07:51:43.532Z,10444
2017-03-13T07:52:43.511Z,10712
2017-03-13T07:53:43.506Z,10824
2017-03-13T07:54:43.508Z,12228
2017-03-13T07:55:43.496Z,14196
2017-03-13T07:56:43.471Z,14608
2017-03-13T07:57:43.470Z,13940
2017-03-13T07:58:43.477Z,15872
2017-03-13T07:59:43.448Z,14452
2017-03-13T08:00:43.438Z,17664
2017-03-13T08:01:43.443Z,16480
2017-03-13T08:02:43.453Z,18976
2017-03-13T08:03:43.449Z,17568
2017-03-13T08:04:43.023Z,16480
2017-03-13T08:05:43.405Z,12264
2017-03-13T08:06:43.388Z,13140
2017-03-13T08:07:43.378Z,12524
2017-03-13T08:08:43.376Z,10540
2017-03-13T08:09:43.388Z,11012
2017-03-13T08:10:43.376Z,11064
2017-03-13T08:11:43.371Z,11392
2017-03-13T08:12:43.350Z,11376
2017-03-13T08:13:43.333Z,11392
2017-03-13T08:14:43.324Z,11380
2017-03-13T08:15:43.319Z,10804
2017-03-13T08:16:43.336Z,10388
2017-03-13T08:17:43.321Z,10796
2017-03-13T08:18:43.293Z,11612
2017-03-13T08:19:42.914Z,12200
2017-03-13T08:20:42.894Z,12688
2017-03-13T08:21:43.271Z,13140
2017-03-13T08:22:43.274Z,13052
2017-03-13T08:23:43.274Z,13412
2017-03-13T08:24:43.249Z,13924
2017-03-13T08:25:42.848Z,14068
2017-03-13T08:26:42.845Z,13828
2017-03-13T08:27:43.233Z,13820
2017-03-13T08:28:42.839Z,13924
2017-03-13T08:29:43.214Z,14504
2017-03-13T08:30:42.810Z,14968
2017-03-13T08:31:43.190Z,15276
2017-03-13T08:32:43.180Z,15440
2017-03-13T08:33:42.402Z,15236
2017-03-13T08:34:43.158Z,14580
2017-03-13T08:35:43.160Z,15620
2017-03-13T08:36:43.166Z,15768
2017-03-13T08:37:42.775Z,14680
2017-03-13T08:38:43.142Z,14672
2017-03-13T08:39:43.153Z,15676
2017-03-13T08:40:42.731Z,17600
2017-03-13T08:41:43.113Z,18560
2017-03-13T08:42:43.103Z,18720
2017-03-13T08:43:43.367Z,18592
2017-03-13T08:44:43.094Z,17984
2017-03-13T08:45:43.077Z,16288
2017-03-13T08:46:43.063Z,15636
2017-03-13T08:47:43.057Z,15896
2017-03-13T08:48:43.064Z,16576
2017-03-13T08:49:43.074Z,17408
2017-03-13T08:50:43.051Z,18336
2017-03-13T08:51:43.027Z,18560
2017-03-13T08:52:43.021Z,17856
2017-03-13T08:53:43.031Z,17312
2017-03-13T08:54:43.023Z,17408
2017-03-13T08:55:43.003Z,17472
2017-03-13T08:56:42.999Z,17056
2017-03-13T08:57:42.609Z,16608
2017-03-13T08:58:42.975Z,15708
2017-03-13T08:59:42.988Z,14972
2017-03-13T09:00:42.961Z,13960
2017-03-13T09:01:42.984Z,13272
2017-03-13T09:02:42.947Z,13072
2017-03-13T09:03:42.950Z,13132
2017-03-13T09:04:42.939Z,13372
2017-03-13T09:05:42.931Z,13044
2017-03-13T09:06:42.933Z,12344
2017-03-13T09:07:42.548Z,11988
2017-03-13T09:08:42.920Z,11728
2017-03-13T09:09:42.899Z,11384
2017-03-13T09:10:42.553Z,11100
2017-03-13T09:11:42.921Z,11068
2017-03-13T09:12:42.907Z,11236
2017-03-13T09:13:42.879Z,11292
2017-03-13T09:14:42.503Z,11052
2017-03-13T09:15:42.903Z,11044
2017-03-13T09:16:42.871Z,11236
2017-03-13T09:17:42.483Z,11548
2017-03-13T09:18:42.845Z,11996
2017-03-13T09:19:42.845Z,12396
2017-03-13T09:20:42.853Z,12984
2017-03-13T09:21:42.821Z,13484
2017-03-13T09:22:42.836Z,13696
2017-03-13T09:23:42.804Z,13356
2017-03-13T09:24:42.808Z,12788
2017-03-13T09:25:42.804Z,12336
2017-03-13T09:26:42.396Z,12052
2017-03-13T09:27:42.771Z,11836
2017-03-13T09:28:42.378Z,11636
2017-03-13T09:29:42.373Z,11240
2017-03-13T09:30:42.793Z,10504
2017-03-13T09:31:42.357Z,9596
2017-03-13T09:32:42.372Z,9444
2017-03-13T09:33:42.361Z,9340
2017-03-13T09:34:42.721Z,9304
2017-03-13T09:35:42.722Z,9616
2017-03-13T09:36:42.757Z,10332
2017-03-13T09:37:42.695Z,10684
2017-03-13T09:38:42.691Z,9848
2017-03-13T09:39:42.683Z,8768
2017-03-13T09:40:42.681Z,8832
2017-03-13T09:41:42.671Z,9220
2017-03-13T09:42:42.271Z,9700
2017-03-13T09:43:42.963Z,10072
2017-03-13T09:44:42.658Z,10768
2017-03-13T09:45:42.685Z,11160
2017-03-13T09:46:42.637Z,11368
2017-03-13T09:47:42.235Z,11532
2017-03-13T09:48:42.235Z,11460
2017-03-13T09:49:42.247Z,11372
2017-03-13T09:50:42.596Z,11328
2017-03-13T09:51:42.219Z,11176
2017-03-13T09:52:42.211Z,11212
2017-03-13T09:53:42.572Z,11104
2017-03-13T09:54:42.562Z,11100
2017-03-13T09:55:42.564Z,11104
2017-03-13T09:56:42.551Z,11060
2017-03-13T09:57:42.551Z,11000
2017-03-13T09:58:42.564Z,10992
2017-03-13T09:59:42.535Z,11024
2017-03-13T10:00:42.146Z,11044
2017-03-13T10:01:42.518Z,11028
2017-03-13T10:02:42.537Z,11044
2017-03-13T10:03:42.505Z,11284
2017-03-13T10:04:42.132Z,11440
2017-03-13T10:05:42.479Z,11544
2017-03-13T10:06:41.726Z,11708
2017-03-13T10:07:42.471Z,11868
2017-03-13T10:08:42.489Z,11940
2017-03-13T10:09:42.456Z,11984
2017-03-13T10:10:42.445Z,12048
2017-03-13T10:11:42.480Z,12092
2017-03-13T10:12:42.440Z,12236
2017-03-13T10:13:42.441Z,12268
2017-03-13T10:14:42.053Z,12260
2017-03-13T10:15:42.427Z,12240
2017-03-13T10:16:42.032Z,12276
2017-03-13T10:17:42.408Z,12364
2017-03-13T10:18:41.639Z,12500
2017-03-13T10:19:42.395Z,12692
2017-03-13T10:20:42.403Z,12988
2017-03-13T10:21:42.371Z,13224
2017-03-13T10:22:41.971Z,13464
2017-03-13T10:23:42.373Z,13692
2017-03-13T10:24:42.371Z,13900
2017-03-13T10:25:41.980Z,14172
2017-03-13T10:26:41.966Z,14424
2017-03-13T10:27:42.347Z,14544
2017-03-13T10:28:42.527Z,14476
2017-03-13T10:29:41.937Z,14380
2017-03-13T10:30:42.299Z,14336
2017-03-13T10:31:42.293Z,14348
2017-03-13T10:32:42.290Z,14388
2017-03-13T10:33:41.889Z,14352
2017-03-13T10:34:42.293Z,14324
2017-03-13T10:35:41.900Z,14236
2017-03-13T10:36:42.308Z,14136
2017-03-13T10:37:42.294Z,14040
2017-03-13T10:38:42.245Z,14100
2017-03-13T10:39:41.858Z,14172
2017-03-13T10:40:42.266Z,14156
2017-03-13T10:41:42.241Z,14100
2017-03-13T10:42:42.227Z,14016
2017-03-13T10:43:41.847Z,13928
2017-03-13T10:44:41.455Z,13876
2017-03-13T10:45:41.836Z,13832
2017-03-13T10:46:42.203Z,13760
2017-03-13T10:47:42.241Z,13692
2017-03-13T10:48:42.194Z,13552
2017-03-13T10:49:42.208Z,13396
2017-03-13T10:50:42.180Z,13216
2017-03-13T10:51:42.214Z,13072
2017-03-13T10:52:41.798Z,12956
2017-03-13T10:53:42.156Z,12900
2017-03-13T10:54:42.168Z,12860
2017-03-13T10:55:41.800Z,12832
2017-03-13T10:56:41.786Z,12796
2017-03-13T10:57:42.134Z,12748
2017-03-13T10:58:42.137Z,12680
2017-03-13T10:59:42.140Z,12648
2017-03-13T11:00:42.131Z,12684
2017-03-13T11:01:42.124Z,12704
2017-03-13T11:02:42.107Z,12652
2017-03-13T11:03:42.131Z,12620
2017-03-13T11:04:42.104Z,12652
2017-03-13T11:05:42.103Z,12792
2017-03-13T11:06:41.693Z,12956
2017-03-13T11:07:42.076Z,13096
2017-03-13T11:08:42.095Z,13208
2017-03-13T11:09:41.686Z,13296
2017-03-13T11:10:42.046Z,13360
2017-03-13T11:11:42.062Z,13388
2017-03-13T11:12:42.048Z,13420
2017-03-13T11:13:42.038Z,13396
2017-03-13T11:14:42.033Z,13436
2017-03-13T11:15:42.022Z,13520
2017-03-13T11:16:42.020Z,13584
2017-03-13T11:17:42.020Z,13620
2017-03-13T11:18:42.023Z,13636
2017-03-13T11:19:42.006Z,13624
2017-03-13T11:20:42.059Z,13608
2017-03-13T11:21:41.997Z,13704
2017-03-13T11:22:41.982Z,13864
2017-03-13T11:23:41.989Z,14028
2017-03-13T11:24:41.985Z,14216
2017-03-13T11:25:41.974Z,14388
2017-03-13T11:26:41.985Z,14504
2017-03-13T11:27:41.954Z,14564
2017-03-13T11:28:41.558Z,14616
2017-03-13T11:29:41.961Z,14664
2017-03-13T11:30:41.936Z,14676
2017-03-13T11:31:41.934Z,14612
2017-03-13T11:32:41.925Z,14512
2017-03-13T11:33:41.925Z,14440
2017-03-13T11:34:41.932Z,14352
2017-03-13T11:35:41.910Z,14264
2017-03-13T11:36:41.917Z,14176
2017-03-13T11:37:41.519Z,14104
2017-03-13T11:38:41.912Z,14020
2017-03-13T11:39:41.894Z,13984
2017-03-13T11:40:41.888Z,13976
2017-03-13T11:41:41.878Z,13940
2017-03-13T11:42:41.879Z,13864
2017-03-13T11:43:41.870Z,13788
2017-03-13T11:44:41.874Z,13660
2017-03-13T11:45:41.853Z,13484
2017-03-13T11:46:41.883Z,13260
2017-03-13T11:47:41.877Z,13000
2017-03-13T11:48:41.834Z,12804
2017-03-13T11:49:41.861Z,12596
2017-03-13T11:50:41.437Z,12400
2017-03-13T11:51:41.840Z,12172
2017-03-13T11:52:41.832Z,12012
2017-03-13T11:53:41.824Z,11888
2017-03-13T11:54:41.834Z,11768
2017-03-13T11:55:41.813Z,11624
2017-03-13T11:56:41.814Z,11444
2017-03-13T11:57:41.787Z,11244
2017-03-13T11:58:41.801Z,11048
2017-03-13T11:59:41.796Z,10852
2017-03-13T12:00:41.784Z,10624
2017-03-13T12:01:41.777Z,10344
2017-03-13T12:02:41.800Z,10104
2017-03-13T12:03:41.761Z,9900
2017-03-13T12:04:41.770Z,9676
2017-03-13T12:05:41.772Z,9492
2017-03-13T12:06:41.765Z,9356
2017-03-13T12:07:41.767Z,9288
2017-03-13T12:08:41.738Z,9228
2017-03-13T12:09:41.726Z,9220
2017-03-13T12:10:41.725Z,9188
2017-03-13T12:11:41.732Z,9184
2017-03-13T12:12:41.735Z,9220
2017-03-13T12:13:41.318Z,9232
2017-03-13T12:14:41.309Z,9220
2017-03-13T12:15:41.708Z,9220
2017-03-13T12:16:41.309Z,9216
2017-03-13T12:17:41.701Z,9228
2017-03-13T12:18:41.289Z,9256
2017-03-13T12:19:41.997Z,9316
2017-03-13T12:20:41.278Z,9416
2017-03-13T12:21:41.295Z,9512
2017-03-13T12:22:41.264Z,9628
2017-03-13T12:23:41.652Z,9760
2017-03-13T12:24:41.653Z,9912
2017-03-13T12:25:41.666Z,10032
2017-03-13T12:26:41.625Z,10128
2017-03-13T12:27:41.621Z,10148
2017-03-13T12:28:41.627Z,10116
2017-03-13T12:29:41.625Z,10048
2017-03-13T12:30:41.600Z,9972
2017-03-13T12:31:41.600Z,9868
2017-03-13T12:32:41.600Z,9748
2017-03-13T12:33:41.198Z,9628
2017-03-13T12:34:41.603Z,9520
2017-03-13T12:35:41.588Z,9424
2017-03-13T12:36:41.569Z,9360
2017-03-13T12:37:41.569Z,9288
2017-03-13T12:38:41.567Z,9220
2017-03-13T12:39:41.553Z,9136
2017-03-13T12:40:41.159Z,9036
2017-03-13T12:41:41.537Z,8912
2017-03-13T12:42:41.546Z,8812
2017-03-13T12:43:41.536Z,8740
2017-03-13T12:44:41.517Z,8684
2017-03-13T12:45:41.515Z,8636
2017-03-13T12:46:41.530Z,8620
2017-03-13T12:47:41.531Z,8648
2017-03-13T12:48:41.112Z,8720
2017-03-13T12:49:41.491Z,8848
2017-03-13T12:50:41.499Z,8976
2017-03-13T12:54:18.340Z,9716
2017-03-13T12:55:17.944Z,9976
2017-03-13T12:56:17.939Z,10212
2017-03-13T12:57:17.934Z,10476
2017-03-13T12:58:17.944Z,10764
2017-03-13T12:59:17.937Z,11136
2017-03-13T13:00:17.505Z,11548
2017-03-13T13:01:17.111Z,11980
2017-03-13T13:02:17.870Z,12456
2017-03-13T13:03:17.872Z,12916
2017-03-13T13:04:17.864Z,13308
2017-03-13T13:05:18.244Z,13688
2017-03-13T13:06:18.235Z,14020
2017-03-13T13:07:18.240Z,14320
2017-03-13T13:08:17.842Z,14576
2017-03-13T13:09:17.838Z,14780
2017-03-13T13:10:18.208Z,14900
2017-03-13T13:11:18.205Z,14916
2017-03-13T13:12:18.206Z,14844
2017-03-13T13:13:18.190Z,14732
2017-03-13T13:14:18.190Z,14640
2017-03-13T13:15:18.187Z,14560
2017-03-13T13:16:18.176Z,14508
2017-03-13T13:17:18.178Z,14472
2017-03-13T13:18:18.177Z,14456
2017-03-13T13:19:18.165Z,14460
2017-03-13T13:20:17.775Z,14472
2017-03-13T13:21:18.156Z,14468
2017-03-13T13:22:17.768Z,14448
2017-03-13T13:23:18.150Z,14416
2017-03-13T13:24:18.139Z,14348
2017-03-13T13:25:18.135Z,14240
2017-03-13T13:26:18.127Z,14088
2017-03-13T13:27:17.733Z,13920
2017-03-13T13:28:18.117Z,13736
2017-03-13T13:29:18.121Z,13564
2017-03-13T13:30:18.115Z,13420
2017-03-13T13:31:18.106Z,13296
2017-03-13T13:32:18.098Z,13200
2017-03-13T13:33:18.088Z,13120
2017-03-13T13:34:18.086Z,13084
2017-03-13T13:35:18.089Z,13068
2017-03-13T13:36:18.080Z,13076
2017-03-13T13:37:18.078Z,13108
2017-03-13T13:38:18.071Z,13160
2017-03-13T13:39:17.678Z,13208
2017-03-13T13:40:18.060Z,13260
2017-03-13T13:41:18.054Z,13300